Time,TemperatureF,DewpointF,PressureIn,WindDirection,WindDirectionDegrees,WindSpeedMPH,WindSpeedGustMPH,Humidity,HourlyPrecipIn,Conditions,Clouds,dailyrainin,SolarRadiationWatts/m^2,SoftwareType,DateUTC
2013-02-18 00:01:00,37.0,29.0,-100.00,ENE,73,1.0,6.0,74,0.00,,,0.00,0.000000,,2013-02-18 08:01:00,
2013-02-18 00:11:00,40.0,28.0,-100.00,ESE,119,4.0,9.0,62,0.00,,,0.00,0.000000,,2013-02-18 08:11:00,
2013-02-18 00:33:00,40.0,28.0,-100.00,ESE,119,4.0,9.0,62,0.00,,,0.00,0.000000,,2013-02-18 08:33:00,
2013-02-18 00:42:00,40.0,28.0,-100.00,ESE,119,4.0,9.0,62,0.00,,,0.00,0.000000,,2013-02-18 08:42:00,
2013-02-18 00:52:00,40.0,28.0,-100.00,ESE,119,4.0,9.0,62,0.00,,,0.00,0.000000,,2013-02-18 08:52:00,
2013-02-18 01:02:00,40.0,28.0,-100.00,ESE,119,4.0,9.0,62,0.00,,,0.00,0.000000,,2013-02-18 09:02:00,
2013-02-18 01:11:00,40.0,28.0,-100.00,ESE,102,5.0,7.0,62,0.00,,,0.00,0.000000,,2013-02-18 09:11:00,
2013-02-18 01:32:00,40.0,28.0,-100.00,ESE,102,5.0,7.0,62,0.00,,,0.00,0.000000,,2013-02-18 09:32:00,
2013-02-18 01:42:00,40.0,28.0,-100.00,ESE,102,5.0,7.0,62,0.00,,,0.00,0.000000,,2013-02-18 09:42:00,
2013-02-18 01:52:00,40.0,28.0,-100.00,ESE,102,5.0,7.0,62,0.00,,,0.00,0.000000,,2013-02-18 09:52:00,
2013-02-18 02:01:00,40.0,28.0,-100.00,ESE,102,5.0,7.0,62,0.00,,,0.00,0.000000,,2013-02-18 10:01:00,
2013-02-18 02:11:00,39.0,28.0,-100.00,East,100,4.0,7.0,65,0.00,,,0.00,0.000000,,2013-02-18 10:11:00,
2013-02-18 02:42:00,39.0,28.0,-100.00,East,100,4.0,7.0,65,0.00,,,0.00,0.000000,,2013-02-18 10:42:00,
2013-02-18 02:52:00,39.0,28.0,-100.00,East,100,4.0,7.0,65,0.00,,,0.00,0.000000,,2013-02-18 10:52:00,
2013-02-18 03:01:00,39.0,28.0,-100.00,East,100,4.0,7.0,65,0.00,,,0.00,0.000000,,2013-02-18 11:01:00,
2013-02-18 03:11:00,38.0,28.0,-100.00,ESE,104,5.0,8.0,68,0.00,,,0.00,0.000000,,2013-02-18 11:11:00,
2013-02-18 03:43:00,38.0,28.0,-100.00,ESE,104,5.0,8.0,68,0.00,,,0.00,0.000000,,2013-02-18 11:43:00,
2013-02-18 03:53:00,38.0,28.0,-100.00,ESE,104,5.0,8.0,68,0.00,,,0.00,0.000000,,2013-02-18 11:53:00,
2013-02-18 04:02:00,38.0,28.0,-100.00,ESE,104,5.0,8.0,68,0.00,,,0.00,0.000000,,2013-02-18 12:02:00,
2013-02-18 04:11:00,38.0,29.0,-100.00,East,94,5.0,7.0,71,0.00,,,0.00,0.000000,,2013-02-18 12:11:00,
2013-02-18 04:32:00,38.0,29.0,-100.00,East,94,5.0,7.0,71,0.00,,,0.00,0.000000,,2013-02-18 12:32:00,
2013-02-18 04:42:00,38.0,29.0,-100.00,East,94,5.0,7.0,71,0.00,,,0.00,0.000000,,2013-02-18 12:42:00,
2013-02-18 04:53:00,38.0,29.0,-100.00,East,94,5.0,7.0,71,0.00,,,0.00,0.000000,,2013-02-18 12:53:00,
2013-02-18 05:02:00,38.0,29.0,-100.00,East,94,5.0,7.0,71,0.00,,,0.00,0.000000,,2013-02-18 13:02:00,
2013-02-18 05:11:00,41.0,29.0,-100.00,East,83,5.0,9.0,63,0.00,,,-99.99,0.000000,,2013-02-18 13:11:00,
2013-02-18 05:42:00,41.0,29.0,-100.00,East,83,5.0,9.0,63,0.00,,,-99.99,0.000000,,2013-02-18 13:42:00,
2013-02-18 05:53:00,41.0,29.0,-100.00,East,83,5.0,9.0,63,0.00,,,-99.99,0.000000,,2013-02-18 13:53:00,
2013-02-18 06:02:00,41.0,29.0,-100.00,East,83,5.0,9.0,63,0.00,,,-99.99,0.000000,,2013-02-18 14:02:00,
2013-02-18 06:11:00,37.0,28.0,-100.00,ESE,105,3.0,10.0,69,0.00,,,0.00,0.000000,,2013-02-18 14:11:00,
2013-02-18 06:33:00,37.0,28.0,-100.00,ESE,105,3.0,10.0,69,0.00,,,0.00,0.000000,,2013-02-18 14:33:00,
2013-02-18 06:42:00,37.0,28.0,-100.00,ESE,105,3.0,10.0,69,0.00,,,0.00,0.000000,,2013-02-18 14:42:00,
2013-02-18 06:53:00,37.0,28.0,-100.00,ESE,105,3.0,10.0,69,0.00,,,0.00,0.000000,,2013-02-18 14:53:00,
2013-02-18 07:01:00,37.0,28.0,-100.00,ESE,105,3.0,10.0,69,0.00,,,0.00,0.000000,,2013-02-18 15:01:00,
2013-02-18 07:11:00,34.0,29.0,-100.00,WNW,299,2.0,5.0,82,0.00,,,0.00,4.000000,,2013-02-18 15:11:00,
2013-02-18 07:42:00,34.0,29.0,-100.00,WNW,299,2.0,5.0,82,0.00,,,0.00,4.000000,,2013-02-18 15:42:00,
2013-02-18 07:52:00,34.0,29.0,-100.00,WNW,299,2.0,5.0,82,0.00,,,0.00,4.000000,,2013-02-18 15:52:00,
2013-02-18 08:02:00,34.0,29.0,-100.00,WNW,299,2.0,5.0,82,0.00,,,0.00,4.000000,,2013-02-18 16:02:00,
2013-02-18 08:11:00,40.0,33.0,-100.00,East,89,2.0,4.0,76,0.00,,,0.00,115.000000,,2013-02-18 16:11:00,
2013-02-18 08:33:00,40.0,33.0,-100.00,East,89,2.0,4.0,76,0.00,,,0.00,115.000000,,2013-02-18 16:33:00,
2013-02-18 08:43:00,40.0,33.0,-100.00,East,89,2.0,4.0,76,0.00,,,0.00,115.000000,,2013-02-18 16:43:00,
2013-02-18 08:52:00,40.0,33.0,-100.00,East,89,2.0,4.0,76,0.00,,,0.00,115.000000,,2013-02-18 16:52:00,
2013-02-18 09:03:00,40.0,33.0,-100.00,East,89,2.0,4.0,76,0.00,,,0.00,115.000000,,2013-02-18 17:03:00,
2013-02-18 09:11:00,42.0,38.0,-100.00,West,265,4.0,6.0,86,0.00,,,0.00,254.000000,,2013-02-18 17:11:00,
2013-02-18 09:43:00,42.0,38.0,-100.00,West,265,4.0,6.0,86,0.00,,,0.00,254.000000,,2013-02-18 17:43:00,
2013-02-18 09:52:00,42.0,38.0,-100.00,West,265,4.0,6.0,86,0.00,,,0.00,254.000000,,2013-02-18 17:52:00,
2013-02-18 10:02:00,42.0,38.0,-100.00,West,265,4.0,6.0,86,0.00,,,0.00,254.000000,,2013-02-18 18:02:00,
2013-02-18 10:11:00,43.0,38.0,-100.00,NW,306,7.0,11.0,83,0.00,,,0.00,257.000000,,2013-02-18 18:11:00,
2013-02-18 10:33:00,43.0,38.0,-100.00,NW,306,7.0,11.0,83,0.00,,,0.00,257.000000,,2013-02-18 18:33:00,
2013-02-18 10:43:00,43.0,38.0,-100.00,NW,306,7.0,11.0,83,0.00,,,0.00,257.000000,,2013-02-18 18:43:00,
2013-02-18 10:52:00,43.0,38.0,-100.00,NW,306,7.0,11.0,83,0.00,,,0.00,257.000000,,2013-02-18 18:52:00,
2013-02-18 11:02:00,43.0,38.0,-100.00,NW,306,7.0,11.0,83,0.00,,,0.00,257.000000,,2013-02-18 19:02:00,
2013-02-18 11:11:00,44.0,39.0,-100.00,NW,308,7.0,12.0,81,0.00,,,0.00,206.000000,,2013-02-18 19:11:00,
2013-02-18 11:43:00,44.0,39.0,-100.00,NW,308,7.0,12.0,81,0.00,,,0.00,206.000000,,2013-02-18 19:43:00,
2013-02-18 11:53:00,44.0,39.0,-100.00,NW,308,7.0,12.0,81,0.00,,,0.00,206.000000,,2013-02-18 19:53:00,
2013-02-18 12:01:00,44.0,39.0,-100.00,NW,308,7.0,12.0,81,0.00,,,0.00,206.000000,,2013-02-18 20:01:00,
2013-02-18 13:11:00,43.0,40.0,-100.00,WNW,293,8.0,13.0,88,-99.99,,,0.00,156.000000,,2013-02-18 21:11:00,
2013-02-18 13:43:00,43.0,40.0,-100.00,WNW,293,8.0,13.0,88,-99.99,,,0.00,156.000000,,2013-02-18 21:43:00,
2013-02-18 13:52:00,43.0,40.0,-100.00,WNW,293,8.0,13.0,88,-99.99,,,0.00,156.000000,,2013-02-18 21:52:00,
2013-02-18 14:02:00,43.0,40.0,-100.00,WNW,293,8.0,13.0,88,-99.99,,,0.00,156.000000,,2013-02-18 22:02:00,
2013-02-18 15:11:00,43.0,39.0,-100.00,NW,312,5.0,9.0,86,-99.99,,,0.00,97.000000,,2013-02-18 23:11:00,
2013-02-18 15:34:00,43.0,39.0,-100.00,NW,312,5.0,9.0,86,-99.99,,,0.00,97.000000,,2013-02-18 23:34:00,
2013-02-18 15:43:00,43.0,39.0,-100.00,NW,312,5.0,9.0,86,-99.99,,,0.00,97.000000,,2013-02-18 23:43:00,
2013-02-18 15:53:00,43.0,39.0,-100.00,NW,312,5.0,9.0,86,-99.99,,,0.00,97.000000,,2013-02-18 23:53:00,
2013-02-18 16:02:00,43.0,39.0,-100.00,NW,312,5.0,9.0,86,-99.99,,,0.00,97.000000,,2013-02-19 00:02:00,
2013-02-18 16:11:00,42.0,37.0,-100.00,WNW,297,8.0,11.0,83,0.00,,,0.00,81.000000,,2013-02-19 00:11:00,
2013-02-18 16:35:00,42.0,37.0,-100.00,WNW,297,8.0,11.0,83,0.00,,,0.00,81.000000,,2013-02-19 00:35:00,
2013-02-18 16:44:00,42.0,37.0,-100.00,WNW,297,8.0,11.0,83,0.00,,,0.00,81.000000,,2013-02-19 00:44:00,
2013-02-18 16:54:00,42.0,37.0,-100.00,WNW,297,8.0,11.0,83,0.00,,,0.00,81.000000,,2013-02-19 00:54:00,
2013-02-18 17:02:00,42.0,37.0,-100.00,WNW,297,8.0,11.0,83,0.00,,,0.00,81.000000,,2013-02-19 01:02:00,
2013-02-18 17:11:00,41.0,37.0,-100.00,WNW,299,8.0,12.0,86,0.00,,,-99.99,28.000000,,2013-02-19 01:11:00,
2013-02-18 17:45:00,41.0,37.0,-100.00,WNW,299,8.0,12.0,86,0.00,,,-99.99,28.000000,,2013-02-19 01:45:00,
2013-02-18 17:55:00,41.0,37.0,-100.00,WNW,299,8.0,12.0,86,0.00,,,-99.99,28.000000,,2013-02-19 01:55:00,
2013-02-18 18:02:00,41.0,37.0,-100.00,WNW,299,8.0,12.0,86,0.00,,,-99.99,28.000000,,2013-02-19 02:02:00,
2013-02-18 18:11:00,40.0,38.0,-100.00,NW,310,8.0,11.0,93,0.00,,,0.00,4.000000,,2013-02-19 02:11:00,
2013-02-18 18:43:00,40.0,38.0,-100.00,NW,310,8.0,11.0,93,0.00,,,0.00,4.000000,,2013-02-19 02:43:00,
2013-02-18 18:54:00,40.0,38.0,-100.00,NW,310,8.0,11.0,93,0.00,,,0.00,4.000000,,2013-02-19 02:54:00,
2013-02-18 19:04:00,40.0,38.0,-100.00,NW,310,8.0,11.0,93,0.00,,,0.00,4.000000,,2013-02-19 03:04:00,
2013-02-18 19:11:00,39.0,37.0,-100.00,West,265,1.0,14.0,93,0.00,,,0.00,0.000000,,2013-02-19 03:11:00,
2013-02-18 19:35:00,39.0,37.0,-100.00,West,265,1.0,14.0,93,0.00,,,0.00,0.000000,,2013-02-19 03:35:00,
2013-02-18 19:45:00,39.0,37.0,-100.00,West,265,1.0,14.0,93,0.00,,,0.00,0.000000,,2013-02-19 03:45:00,
2013-02-18 19:54:00,39.0,37.0,-100.00,West,265,1.0,14.0,93,0.00,,,0.00,0.000000,,2013-02-19 03:54:00,
2013-02-18 20:01:00,39.0,37.0,-100.00,West,265,1.0,14.0,93,0.00,,,0.00,0.000000,,2013-02-19 04:01:00,
2013-02-18 20:11:00,39.0,37.0,-100.00,ESE,122,1.0,3.0,93,0.00,,,0.00,0.000000,,2013-02-19 04:11:00,
2013-02-18 20:34:00,39.0,37.0,-100.00,ESE,122,1.0,3.0,93,0.00,,,0.00,0.000000,,2013-02-19 04:34:00,
2013-02-18 20:44:00,39.0,37.0,-100.00,ESE,122,1.0,3.0,93,0.00,,,0.00,0.000000,,2013-02-19 04:44:00,
2013-02-18 20:54:00,39.0,37.0,-100.00,ESE,122,1.0,3.0,93,0.00,,,0.00,0.000000,,2013-02-19 04:54:00,
2013-02-18 21:01:00,39.0,37.0,-100.00,ESE,122,1.0,3.0,93,0.00,,,0.00,0.000000,,2013-02-19 05:01:00,
2013-02-18 21:11:00,39.0,37.0,-100.00,WNW,302,5.0,7.0,91,0.00,,,0.00,0.000000,,2013-02-19 05:11:00,
2013-02-18 21:32:00,39.0,37.0,-100.00,WNW,302,5.0,7.0,91,0.00,,,0.00,0.000000,,2013-02-19 05:32:00,
2013-02-18 21:43:00,39.0,37.0,-100.00,WNW,302,5.0,7.0,91,0.00,,,0.00,0.000000,,2013-02-19 05:43:00,
2013-02-18 21:52:00,39.0,37.0,-100.00,WNW,302,5.0,7.0,91,0.00,,,0.00,0.000000,,2013-02-19 05:52:00,
2013-02-18 22:02:00,39.0,37.0,-100.00,WNW,302,5.0,7.0,91,0.00,,,0.00,0.000000,,2013-02-19 06:02:00,
2013-02-18 22:11:00,39.0,38.0,-100.00,WNW,298,4.0,8.0,95,0.00,,,0.00,0.000000,,2013-02-19 06:11:00,
2013-02-18 22:33:00,39.0,38.0,-100.00,WNW,298,4.0,8.0,95,0.00,,,0.00,0.000000,,2013-02-19 06:33:00,
2013-02-18 22:42:00,39.0,38.0,-100.00,WNW,298,4.0,8.0,95,0.00,,,0.00,0.000000,,2013-02-19 06:42:00,
2013-02-18 22:52:00,39.0,38.0,-100.00,WNW,298,4.0,8.0,95,0.00,,,0.00,0.000000,,2013-02-19 06:52:00,
2013-02-18 23:01:00,39.0,38.0,-100.00,WNW,298,4.0,8.0,95,0.00,,,0.00,0.000000,,2013-02-19 07:01:00,
2013-02-18 23:11:00,39.0,37.0,-100.00,WNW,285,2.0,6.0,94,0.00,,,0.00,0.000000,,2013-02-19 07:11:00,
2013-02-18 23:42:00,39.0,37.0,-100.00,WNW,285,2.0,6.0,94,0.00,,,0.00,0.000000,,2013-02-19 07:42:00,
2013-02-18 23:52:00,39.0,37.0,-100.00,WNW,285,2.0,6.0,94,0.00,,,0.00,0.000000,,2013-02-19 07:52:00,